Terminal Aerodrome Forecast
Issued by NWS

Home | Current Version | Previous Version | Text Only | Print | Product List | Glossary On
Versions: 1 2 3 4 5 6 7 8 9 10 11 12 13 14 15
000
FTUS42 KTBW 220500 RRA
TAFPGD
TAF
KPGD 220547Z 2206/2306 VRB03KT P6SM VCSH FEW060 BKN100
     FM220900 15005KT 4SM BR BKN015 OVC040
     FM221400 18011KT P6SM SCT020 BKN040 OVC100
     FM230100 18004KT 6SM BR SCT020 BKN100=

USA.gov is the U.S. government's official web portal to all federal, state and local government web resources and services.